Ciclone tropical HETA 2004: trajetória, intensidade e histórico
12/01/2004, 00:00:00
25/12/2003, 06:00:00 – 12/01/2004, 00:00:00
Trajetória histórica
Acompanhe a evolução e o deslocamento de Ciclone tropical HETA em 2004, com a trajetória completa registrada, ventos máximos sustentados de 140 nós, pressão central mínima e cronologia detalhada.
| Data | Hora | Tipo | Ventokm/h | PressãohPa |
|---|---|---|---|---|
| 12/01 | 00:00 | TDDepressão tropical | 55 | 999 |
| 11/01 | 21:00 | TDDepressão tropical | 55 | 998 |
| 11/01 | 18:00 | TDDepressão tropical | 55 | 997 |
| 11/01 | 15:00 | TDDepressão tropical | 55 | 997 |
| 11/01 | 12:00 | TDDepressão tropical | 55 | 996 |
| 11/01 | 09:00 | TDDepressão tropical | 60 | 996 |
| 11/01 | 06:00 | TSTempestade tropical | 65 | 995 |
| 11/01 | 03:00 | TSTempestade tropical | 65 | 995 |
| 11/01 | 00:00 | TSTempestade tropical | 65 | 995 |
| 10/01 | 21:00 | TSTempestade tropical | 65 | 995 |
| 10/01 | 18:00 | TSTempestade tropical | 65 | 995 |
| 10/01 | 15:00 | TSTempestade tropical | 65 | 995 |
| 10/01 | 12:00 | TSTempestade tropical | 65 | 995 |
| 10/01 | 09:00 | TSTempestade tropical | 65 | 995 |
| 10/01 | 06:00 | TSTempestade tropical | 65 | 994 |
| 10/01 | 03:00 | TSTempestade tropical | 65 | 994 |
| 10/01 | 00:00 | TSTempestade tropical | 65 | 993 |
| 09/01 | 21:00 | TSTempestade tropical | 70 | 992 |
| 09/01 | 18:00 | TSTempestade tropical | 75 | 990 |
| 09/01 | 15:00 | EXCiclone extratropical | 80 | 989 |
| 09/01 | 12:00 | EXCiclone extratropical | 55 | 1000 |
| 09/01 | 09:00 | EXCiclone extratropical | 55 | 1000 |
| 09/01 | 06:00 | EXCiclone extratropical | 55 | 1000 |
| 09/01 | 03:00 | EXCiclone extratropical | 60 | 999 |
| 09/01 | 00:00 | EXCiclone extratropical | 65 | 997 |
| 08/01 | 21:00 | EXCiclone extratropical | 70 | 996 |
| 08/01 | 18:00 | EXCiclone extratropical | 75 | 994 |
| 08/01 | 15:00 | EXCiclone extratropical | 65 | 997 |
| 08/01 | 12:00 | EXCiclone extratropical | 55 | 1000 |
| 08/01 | 09:00 | EXCiclone extratropical | 55 | 1000 |
| 08/01 | 06:00 | EXCiclone extratropical | 55 | 1000 |
| 08/01 | 03:00 | TCCiclone tropical | 70 | 1000 |
| 08/01 | 00:00 | TCCiclone tropical | 85 | 1000 |
| 07/01 | 21:00 | TCCiclone tropical | 90 | 999 |
| 07/01 | 18:00 | TCCiclone tropical | 95 | 997 |
| 07/01 | 15:00 | TCCiclone tropical | 105 | 987 |
| 07/01 | 12:00 | TCCiclone tropical | 120 | 976 |
| 07/01 | 09:00 | TCCiclone tropical | 135 | 976 |
| 07/01 | 06:00 | TCCiclone tropical | 150 | 976 |
| 07/01 | 03:00 | TCCiclone tropical | 165 | 971 |
| 07/01 | 00:00 | DBPerturbação tropical | 175 | 966 |
| 06/01 | 21:00 | TCCiclone tropical | 185 | 952 |
| 06/01 | 18:00 | DBPerturbação tropical | 195 | 938 |
| 06/01 | 15:00 | TCCiclone tropical | 205 | 933 |
| 06/01 | 12:00 | DBPerturbação tropical | 215 | 927 |
| 06/01 | 09:00 | TCCiclone tropical | 220 | 925 |
| 06/01 | 06:00 | DBPerturbação tropical | 220 | 922 |
| 06/01 | 03:00 | TCCiclone tropical | 230 | 927 |
| 06/01 | 00:00 | DBPerturbação tropical | 240 | 931 |
| 05/01 | 21:00 | TCCiclone tropical | 240 | 931 |
| 05/01 | 18:00 | DBPerturbação tropical | 240 | 931 |
| 05/01 | 15:00 | TCCiclone tropical | 250 | 915 |
| 05/01 | 12:00 | DBPerturbação tropical | 260 | 898 |
| 05/01 | 09:00 | TCCiclone tropical | 260 | 898 |
| 05/01 | 06:00 | DBPerturbação tropical | 260 | 898 |
| 05/01 | 03:00 | TCCiclone tropical | 260 | 910 |
| 05/01 | 00:00 | DBPerturbação tropical | 260 | 921 |
| 04/01 | 21:00 | TCCiclone tropical | 245 | 929 |
| 04/01 | 18:00 | DBPerturbação tropical | 230 | 936 |
| 04/01 | 15:00 | TCCiclone tropical | 215 | 937 |
| 04/01 | 12:00 | DBPerturbação tropical | 195 | 938 |
| 04/01 | 09:00 | TCCiclone tropical | 175 | 956 |
| 04/01 | 06:00 | DBPerturbação tropical | 155 | 973 |
| 04/01 | 03:00 | TCCiclone tropical | 150 | 970 |
| 04/01 | 00:00 | DBPerturbação tropical | 140 | 967 |
| 03/01 | 21:00 | TCCiclone tropical | 140 | 967 |
| 03/01 | 18:00 | DBPerturbação tropical | 140 | 967 |
| 03/01 | 15:00 | TCCiclone tropical | 130 | 972 |
| 03/01 | 12:00 | DBPerturbação tropical | 120 | 976 |
| 03/01 | 09:00 | TCCiclone tropical | 120 | 976 |
| 03/01 | 06:00 | DBPerturbação tropical | 120 | 976 |
| 03/01 | 03:00 | TCCiclone tropical | 115 | 983 |
| 03/01 | 00:00 | DBPerturbação tropical | 110 | 990 |
| 02/01 | 21:00 | TCCiclone tropical | 105 | 987 |
| 02/01 | 18:00 | DBPerturbação tropical | 100 | 984 |
| 02/01 | 15:00 | TSTempestade tropical | 100 | 986 |
| 02/01 | 12:00 | DBPerturbação tropical | 95 | 987 |
| 02/01 | 09:00 | TSTempestade tropical | 90 | 989 |
| 02/01 | 06:00 | DBPerturbação tropical | 85 | 991 |
| 02/01 | 03:00 | TCCiclone tropical | 80 | 993 |
| 02/01 | 00:00 | DBPerturbação tropical | 75 | 994 |
| 01/01 | 21:00 | TCCiclone tropical | 70 | 996 |
| 01/01 | 18:00 | DBPerturbação tropical | 65 | 997 |
| 01/01 | 15:00 | TCCiclone tropical | 65 | 997 |
| 01/01 | 12:00 | DBPerturbação tropical | 65 | 997 |
| 01/01 | 09:00 | TCCiclone tropical | 65 | 997 |
| 01/01 | 06:00 | DBPerturbação tropical | 65 | 997 |
| 01/01 | 03:00 | TDDepressão tropical | 60 | 999 |
| 01/01 | 00:00 | DBPerturbação tropical | 55 | 1000 |
| 31/12 | 21:00 | TDDepressão tropical | 55 | 1000 |
| 31/12 | 18:00 | DBPerturbação tropical | 55 | 1000 |
| 31/12 | 15:00 | TDDepressão tropical | 55 | 1000 |
| 31/12 | 12:00 | DBPerturbação tropical | 55 | 1000 |
| 31/12 | 09:00 | TDDepressão tropical | 55 | 1000 |
| 31/12 | 06:00 | DBPerturbação tropical | 55 | 1000 |
| 31/12 | 03:00 | TDDepressão tropical | 55 | 1000 |
| 31/12 | 00:00 | DBPerturbação tropical | 55 | 1000 |
| 30/12 | 21:00 | TDDepressão tropical | 55 | 1000 |
| 30/12 | 18:00 | DBPerturbação tropical | 55 | 1000 |
| 30/12 | 15:00 | TDDepressão tropical | 50 | 1001 |
| 30/12 | 12:00 | DBPerturbação tropical | 45 | 1002 |
| 30/12 | 09:00 | TDDepressão tropical | 45 | 1002 |
| 30/12 | 06:00 | DBPerturbação tropical | 45 | 1002 |
| 30/12 | 03:00 | TDDepressão tropical | 45 | 1006 |
| 30/12 | 00:00 | DBPerturbação tropical | 45 | 1009 |
| 29/12 | 21:00 | DBPerturbação tropical | 45 | 1007 |
| 29/12 | 18:00 | DBPerturbação tropical | 35 | 1004 |
| 29/12 | 15:00 | DBPerturbação tropical | 35 | 1004 |
| 29/12 | 12:00 | DBPerturbação tropical | 35 | 1004 |
| 29/12 | 09:00 | TDDepressão tropical | 35 | 1002 |
| 29/12 | 06:00 | DBPerturbação tropical | 35 | 1002 |
| 29/12 | 03:00 | TDDepressão tropical | 35 | 1002 |
| 29/12 | 00:00 | DBPerturbação tropical | 35 | 1002 |
| 28/12 | 21:00 | TDDepressão tropical | 35 | 1002 |
| 28/12 | 18:00 | DBPerturbação tropical | 35 | 1002 |
| 28/12 | 15:00 | TDDepressão tropical | 35 | 1002 |
| 28/12 | 12:00 | DBPerturbação tropical | 35 | 1002 |
| 28/12 | 09:00 | TDDepressão tropical | 35 | 1002 |
| 28/12 | 06:00 | DBPerturbação tropical | 35 | 1002 |
| 28/12 | 03:00 | TDDepressão tropical | 35 | 1002 |
| 28/12 | 00:00 | DBPerturbação tropical | 35 | 1002 |
| 27/12 | 21:00 | TDDepressão tropical | 35 | 1002 |
| 27/12 | 18:00 | DBPerturbação tropical | 35 | 1002 |
| 27/12 | 15:00 | TDDepressão tropical | 35 | 1003 |
| 27/12 | 12:00 | DBPerturbação tropical | 30 | 1004 |
| 27/12 | 09:00 | TDDepressão tropical | 30 | 1004 |
| 27/12 | 06:00 | DBPerturbação tropical | 30 | 1004 |
| 27/12 | 03:00 | TDDepressão tropical | 30 | 1004 |
| 27/12 | 00:00 | DBPerturbação tropical | 30 | 1004 |
| 26/12 | 21:00 | TDDepressão tropical | 30 | 1004 |
| 26/12 | 18:00 | DBPerturbação tropical | 30 | 1004 |
| 26/12 | 15:00 | TDDepressão tropical | 30 | 1004 |
| 26/12 | 12:00 | DBPerturbação tropical | 30 | 1004 |
| 26/12 | 09:00 | TDDepressão tropical | 30 | 1004 |
| 26/12 | 06:00 | DBPerturbação tropical | 30 | 1004 |
| 26/12 | 03:00 | TDDepressão tropical | 30 | 1004 |
| 26/12 | 00:00 | DBPerturbação tropical | 30 | 1004 |
| 25/12 | 21:00 | TDDepressão tropical | 30 | 1004 |
| 25/12 | 18:00 | DBPerturbação tropical | 30 | 1004 |
| 25/12 | 15:00 | TDDepressão tropical | 30 | 1004 |
| 25/12 | 12:00 | DBPerturbação tropical | 30 | 1004 |
| 25/12 | 09:00 | TDDepressão tropical | 30 | 1004 |
| 25/12 | 06:00 | DBPerturbação tropical | 30 | 1004 |
Cronologia de localização
143 Registos de localizaçãoDetalhes do evento
Ligações das fontes
A localização, a extensão e o estado de cada evento podem ser atualizados em momentos diferentes consoante a fonte. Confirme decisões importantes junto das autoridades oficiais de emergência.
Os registos de eventos provêm da NASA EONET e são complementados por registos de deslizamentos de terra do USGS FDSN. As análises e previsões de tempestades podem utilizar a NOAA NHC ou o JTWC, com registos históricos ATCF da UCAR/NCAR quando disponíveis. As imagens de satélite provêm da NASA Worldview/GIBS (GOES e Himawari) ou da EUMETSAT Meteosat, consoante a cobertura do mapa.
Fontes: NASA EONET · USGS · NOAA NHC · JTWC · UCAR/NCAR ATCF · NASA Worldview/GIBS · EUMETSAT Meteosat · OpenStreetMap contributors